createdAt,value
2023-03-30T00:01:28.461Z,10.00
2023-03-30T00:07:30.608Z,10.00
2023-03-30T00:13:35.018Z,10.00
2023-03-30T00:19:38.824Z,10.10
2023-03-30T00:25:43.175Z,10.00
2023-03-30T00:31:45.128Z,10.00
2023-03-30T00:37:49.637Z,9.90
2023-03-30T00:44:05.806Z,9.80
2023-03-30T00:50:09.801Z,9.80
2023-03-30T00:56:16.536Z,9.80
2023-03-30T01:02:21.533Z,9.80
2023-03-30T01:08:27.142Z,9.80
2023-03-30T01:14:29.258Z,9.80
2023-03-30T01:21:07.632Z,9.70
2023-03-30T01:27:46.100Z,9.60
2023-03-30T01:34:10.494Z,9.50
2023-03-30T01:40:24.867Z,9.40
2023-03-30T01:46:37.816Z,9.30
2023-03-30T01:53:00.635Z,9.30
2023-03-30T01:59:27.272Z,9.20
2023-03-30T02:05:32.811Z,9.10
2023-03-30T02:11:37.807Z,9.10
2023-03-30T02:17:42.295Z,9.20
2023-03-30T02:23:46.421Z,9.10
2023-03-30T02:29:49.067Z,9.10
2023-03-30T02:35:57.728Z,9.10
2023-03-30T02:42:08.421Z,9.20
2023-03-30T02:48:27.445Z,9.50
2023-03-30T02:54:47.892Z,9.70
2023-03-30T03:00:59.262Z,9.80
2023-03-30T03:07:02.543Z,9.90
2023-03-30T03:13:04.457Z,10.10
2023-03-30T03:19:06.328Z,10.30
2023-03-30T03:25:08.686Z,10.40
2023-03-30T03:31:11.545Z,10.50
2023-03-30T03:37:13.782Z,10.50
2023-03-30T03:43:15.974Z,10.60
2023-03-30T03:49:17.849Z,10.70
2023-03-30T03:55:19.764Z,10.80
2023-03-30T04:01:21.965Z,10.90
2023-03-30T04:07:25.573Z,11.00
2023-03-30T04:13:27.735Z,11.10
2023-03-30T04:19:31.462Z,11.10
2023-03-30T04:25:33.435Z,11.10
2023-03-30T04:31:35.937Z,11.30
2023-03-30T04:37:38.319Z,11.30
2023-03-30T04:43:40.713Z,11.50
2023-03-30T04:49:42.595Z,11.40
2023-03-30T04:55:50.126Z,11.40
2023-03-30T05:01:52.056Z,11.40
2023-03-30T05:07:54.113Z,11.40
2023-03-30T05:13:56.022Z,11.30
2023-03-30T05:19:57.973Z,11.30
2023-03-30T05:25:59.920Z,11.50
2023-03-30T05:32:02.142Z,11.50
2023-03-30T05:38:05.161Z,11.60
2023-03-30T05:44:07.636Z,11.90
2023-03-30T05:50:09.958Z,12.10
2023-03-30T05:56:11.914Z,12.40
2023-03-30T06:02:14.610Z,12.70
2023-03-30T06:08:16.664Z,13.00
2023-03-30T06:14:19.512Z,13.40
2023-03-30T06:20:21.958Z,13.80
2023-03-30T06:26:24.343Z,14.10
2023-03-30T06:32:27.064Z,14.40
2023-03-30T06:38:29.237Z,14.70
2023-03-30T06:44:31.270Z,15.00
2023-03-30T06:50:33.893Z,15.00
2023-03-30T06:56:35.944Z,14.90
2023-03-30T07:02:37.885Z,14.80
2023-03-30T07:08:40.412Z,14.70
2023-03-30T07:14:42.361Z,14.60
2023-03-30T07:20:47.453Z,14.50
2023-03-30T07:26:49.341Z,14.50
2023-03-30T07:32:51.740Z,14.40
2023-03-30T07:38:53.823Z,14.50
2023-03-30T07:44:55.772Z,14.50
2023-03-30T07:51:11.743Z,14.60
2023-03-30T07:57:13.792Z,14.70
2023-03-30T08:03:16.102Z,14.80
2023-03-30T08:09:18.433Z,14.90
2023-03-30T08:15:20.738Z,15.10
2023-03-30T08:21:25.994Z,15.10
2023-03-30T08:27:27.916Z,15.20
2023-03-30T08:33:29.825Z,15.40
2023-03-30T08:39:32.296Z,15.60
2023-03-30T08:45:42.618Z,15.70
2023-03-30T08:51:46.989Z,15.70
2023-03-30T08:57:55.900Z,15.60
2023-03-30T09:04:31.393Z,16.00
2023-03-30T09:10:47.454Z,17.00
2023-03-30T09:17:04.020Z,17.60
2023-03-30T09:23:14.200Z,18.30
2023-03-30T09:29:26.220Z,18.70
2023-03-30T09:35:41.684Z,20.10
2023-03-30T09:42:17.018Z,20.90
2023-03-30T09:48:18.923Z,21.30
2023-03-30T09:54:22.037Z,22.60
2023-03-30T10:00:33.163Z,22.60
2023-03-30T10:06:48.869Z,20.80
2023-03-30T10:12:54.776Z,19.50
2023-03-30T10:19:02.565Z,18.50
2023-03-30T10:25:17.881Z,18.10
2023-03-30T10:31:20.685Z,18.40
2023-03-30T10:37:28.162Z,18.30
2023-03-30T10:43:34.879Z,18.20
2023-03-30T10:50:15.054Z,17.70
2023-03-30T10:56:35.864Z,17.60
2023-03-30T11:02:57.464Z,17.10
2023-03-30T11:09:04.815Z,17.00
2023-03-30T11:15:36.756Z,16.90
2023-03-30T11:22:24.648Z,16.50
2023-03-30T11:28:55.565Z,14.00
2023-03-30T11:35:17.364Z,12.50
2023-03-30T11:41:31.879Z,12.10
2023-03-30T11:47:57.138Z,12.10
2023-03-30T11:54:13.752Z,12.20
2023-03-30T12:00:35.958Z,12.30
2023-03-30T12:07:00.570Z,12.50
2023-03-30T12:13:03.222Z,12.90
2023-03-30T12:19:25.683Z,13.20
2023-03-30T12:26:07.244Z,13.40
2023-03-30T12:32:29.621Z,13.90
2023-03-30T12:38:58.032Z,14.10
2023-03-30T12:45:33.953Z,13.90
2023-03-30T12:52:18.032Z,13.60
2023-03-30T12:58:24.368Z,13.80
2023-03-30T13:04:33.126Z,14.40
2023-03-30T13:10:41.198Z,15.50
2023-03-30T13:16:53.293Z,16.00
2023-03-30T13:23:09.266Z,16.30
2023-03-30T13:29:15.246Z,15.90
2023-03-30T13:35:42.041Z,17.90
2023-03-30T13:42:30.538Z,17.30
2023-03-30T13:49:07.839Z,17.20
2023-03-30T13:55:38.168Z,17.90
2023-03-30T14:01:41.789Z,18.00
2023-03-30T14:07:47.172Z,17.10
2023-03-30T14:13:52.896Z,16.30
2023-03-30T14:20:23.207Z,16.30
2023-03-30T14:26:28.981Z,17.50
2023-03-30T14:32:31.465Z,17.60
2023-03-30T14:38:39.989Z,17.90
2023-03-30T14:44:42.232Z,17.10
2023-03-30T14:50:45.564Z,16.30
2023-03-30T14:56:57.766Z,15.70
2023-03-30T15:03:01.074Z,15.40
2023-03-30T15:09:09.525Z,15.50
2023-03-30T15:15:16.650Z,15.40
2023-03-30T15:21:20.595Z,14.90
2023-03-30T15:27:24.148Z,14.60
2023-03-30T15:33:38.825Z,14.40
2023-03-30T15:39:49.263Z,14.40
2023-03-30T15:45:59.024Z,14.20
2023-03-30T15:52:08.057Z,14.10
2023-03-30T15:58:18.702Z,14.00
2023-03-30T16:04:24.194Z,14.10
2023-03-30T16:10:30.527Z,14.80
2023-03-30T16:16:33.346Z,15.50
2023-03-30T16:22:35.299Z,16.90
2023-03-30T16:28:37.564Z,16.40
2023-03-30T16:34:41.718Z,15.50
2023-03-30T16:40:58.392Z,14.70
2023-03-30T16:47:00.288Z,14.50
2023-03-30T16:53:02.315Z,14.60
2023-03-30T16:59:05.336Z,14.70
2023-03-30T17:05:07.855Z,15.50
2023-03-30T17:11:13.307Z,17.20
2023-03-30T17:17:15.262Z,17.60
2023-03-30T17:23:17.665Z,16.20
2023-03-30T17:29:19.813Z,15.10
2023-03-30T17:35:22.873Z,14.40
2023-03-30T17:41:24.830Z,14.00
2023-03-30T17:47:26.831Z,13.90
2023-03-30T17:53:28.847Z,13.70
2023-03-30T17:59:31.321Z,13.60
2023-03-30T18:05:34.740Z,13.50
2023-03-30T18:11:36.652Z,13.20
2023-03-30T18:17:38.735Z,12.80
2023-03-30T18:23:40.750Z,12.50
2023-03-30T18:29:42.708Z,12.40
2023-03-30T18:35:47.162Z,12.40
2023-03-30T18:41:49.778Z,12.30
2023-03-30T18:47:51.787Z,12.20
2023-03-30T18:53:53.699Z,12.10
2023-03-30T18:59:56.380Z,11.90
2023-03-30T19:05:58.282Z,11.70
2023-03-30T19:12:00.383Z,11.60
2023-03-30T19:18:05.036Z,11.60
2023-03-30T19:24:07.120Z,11.50
2023-03-30T19:30:16.511Z,11.50
2023-03-30T19:36:19.246Z,11.60
2023-03-30T19:42:21.199Z,11.60
2023-03-30T19:48:23.176Z,11.70
2023-03-30T19:54:25.339Z,11.70
2023-03-30T20:00:27.550Z,11.70
2023-03-30T20:06:29.878Z,11.70
2023-03-30T20:12:32.394Z,11.60
2023-03-30T20:18:35.605Z,11.60
2023-03-30T20:24:39.012Z,11.60
2023-03-30T20:30:41.183Z,11.60
2023-03-30T20:36:44.813Z,11.60
2023-03-30T20:42:48.090Z,11.50
2023-03-30T20:48:54.011Z,11.50
2023-03-30T20:54:56.339Z,11.50
2023-03-30T21:01:01.643Z,11.60
2023-03-30T21:07:03.659Z,11.50
2023-03-30T21:13:05.591Z,11.40
2023-03-30T21:19:08.911Z,11.30
2023-03-30T21:25:12.766Z,11.30
2023-03-30T21:31:15.299Z,11.30
2023-03-30T21:37:17.273Z,11.30
2023-03-30T21:43:19.186Z,11.30
2023-03-30T21:49:21.075Z,11.40
2023-03-30T21:55:22.960Z,11.40
2023-03-30T22:01:25.598Z,11.40
2023-03-30T22:07:27.534Z,11.50
2023-03-30T22:13:29.720Z,11.50
2023-03-30T22:19:31.907Z,11.60
2023-03-30T22:25:33.886Z,11.70
2023-03-30T22:31:38.000Z,11.70
2023-03-30T22:37:39.893Z,11.70
2023-03-30T22:43:41.985Z,11.70
2023-03-30T22:49:43.945Z,11.70
2023-03-30T22:55:49.063Z,11.70
2023-03-30T23:01:51.180Z,11.70
2023-03-30T23:07:53.503Z,11.80
2023-03-30T23:13:55.984Z,11.80
2023-03-30T23:19:58.200Z,11.70
2023-03-30T23:26:02.903Z,11.70
2023-03-30T23:32:05.953Z,11.60
2023-03-30T23:38:10.053Z,11.40
2023-03-30T23:44:12.069Z,11.20
2023-03-30T23:50:15.291Z,11.10
2023-03-30T23:56:17.922Z,10.90
